The Lakes, Nevada
Current Conditions -  °F | °C
As of 8:53 PM on Friday 28 Nov 2014 (Local Time) from KVGT Reporting Station
Clear Clear  
Wind Chill: 46°   Ceiling: Unl
Heat Index: 48°   Visibility: 10mi
Dew Point: 23°   Wind: 5mph
Humidity: 37%   Direction: 300°WNW
Pressure: 29.9"   Gusts: NA
Location:  36.14°N, 115.29°W
Report Text: KVGT 290453Z 30004KT 10SM CLR 09/M05 A2990 RMK AO2 SLP140 T00891050
Loading
Personal Weather Stations






























Interactive Weather Map New forecast layout! Learn more

10-Day Weather Forecast

Advertisements
Track Severe Weather on mobile